createdAt,value
2023-01-19T00:01:30.972Z,4.90
2023-01-19T00:03:58.097Z,5.27
2023-01-19T00:06:25.495Z,5.20
2023-01-19T00:08:52.688Z,5.03
2023-01-19T00:11:20.311Z,5.30
2023-01-19T00:13:50.618Z,5.50
2023-01-19T00:16:18.820Z,5.57
2023-01-19T00:18:46.559Z,5.40
2023-01-19T00:21:17.019Z,5.07
2023-01-19T00:23:47.281Z,5.13
2023-01-19T00:26:16.191Z,5.67
2023-01-19T00:28:46.697Z,5.20
2023-01-19T00:31:13.904Z,4.93
2023-01-19T00:33:41.096Z,5.80
2023-01-19T00:36:08.455Z,5.57
2023-01-19T00:38:35.588Z,5.67
2023-01-19T00:41:02.708Z,6.03
2023-01-19T00:43:29.841Z,5.53
2023-01-19T00:45:56.993Z,5.87
2023-01-19T00:48:24.498Z,5.57
2023-01-19T00:50:51.605Z,6.50
2023-01-19T00:53:18.871Z,6.07
2023-01-19T00:55:46.040Z,6.40
2023-01-19T00:58:13.157Z,6.50
2023-01-19T01:00:40.303Z,6.07
2023-01-19T01:03:07.544Z,6.27
2023-01-19T01:05:34.951Z,7.10
2023-01-19T01:08:02.097Z,7.40
2023-01-19T01:10:29.985Z,6.33
2023-01-19T01:12:58.776Z,6.50
2023-01-19T01:15:27.643Z,6.60
2023-01-19T01:17:54.996Z,7.17
2023-01-19T01:20:23.903Z,6.97
2023-01-19T01:22:51.961Z,6.73
2023-01-19T01:25:22.565Z,7.17
2023-01-19T01:27:49.960Z,7.07
2023-01-19T01:30:17.349Z,7.33
2023-01-19T01:32:44.474Z,6.80
2023-01-19T01:35:12.331Z,7.33
2023-01-19T01:37:39.939Z,7.07
2023-01-19T01:40:07.542Z,7.53
2023-01-19T01:42:35.864Z,7.33
2023-01-19T01:45:06.152Z,7.23
2023-01-19T01:47:33.319Z,7.00
2023-01-19T01:50:03.504Z,7.57
2023-01-19T01:52:33.093Z,7.57
2023-01-19T01:55:00.863Z,7.27
2023-01-19T01:57:28.230Z,7.77
2023-01-19T01:59:56.360Z,8.17
2023-01-19T02:02:46.141Z,8.27
2023-01-19T02:05:15.943Z,7.60
2023-01-19T02:08:07.786Z,8.07
2023-01-19T02:10:53.719Z,8.13
2023-01-19T02:13:21.255Z,8.17
2023-01-19T02:15:52.857Z,8.67
2023-01-19T02:18:21.307Z,8.30
2023-01-19T02:20:54.321Z,7.90
2023-01-19T02:23:31.736Z,7.77
2023-01-19T02:25:59.185Z,8.93
2023-01-19T02:28:27.673Z,8.10
2023-01-19T02:30:56.090Z,8.10
2023-01-19T02:33:23.363Z,8.33
2023-01-19T02:35:51.718Z,8.40
2023-01-19T02:38:20.457Z,9.10
2023-01-19T02:40:48.383Z,8.57
2023-01-19T02:43:17.086Z,8.50
2023-01-19T02:45:44.405Z,9.03
2023-01-19T02:48:11.653Z,8.27
2023-01-19T02:50:47.558Z,8.33
2023-01-19T02:53:17.787Z,8.50
2023-01-19T02:55:48.088Z,8.20
2023-01-19T02:58:26.313Z,8.83
2023-01-19T03:01:02.378Z,8.90
2023-01-19T03:03:35.600Z,8.20
2023-01-19T03:06:08.537Z,8.70
2023-01-19T03:08:35.661Z,8.40
2023-01-19T03:11:10.251Z,8.90
2023-01-19T03:13:37.365Z,8.47
2023-01-19T03:16:13.481Z,8.43
2023-01-19T03:18:42.821Z,8.87
2023-01-19T03:21:11.066Z,8.83
2023-01-19T03:23:39.381Z,10.30
2023-01-19T03:26:09.243Z,9.83
2023-01-19T03:28:37.019Z,9.40
2023-01-19T03:31:07.700Z,9.77
2023-01-19T03:33:37.277Z,8.90
2023-01-19T03:36:07.609Z,9.40
2023-01-19T03:38:36.563Z,9.33
2023-01-19T03:41:05.188Z,10.00
2023-01-19T03:43:32.545Z,9.53
2023-01-19T03:46:00.929Z,9.77
2023-01-19T03:48:28.069Z,10.07
2023-01-19T03:50:56.018Z,9.73
2023-01-19T03:53:23.178Z,10.00
2023-01-19T03:55:53.541Z,9.70
2023-01-19T03:58:22.109Z,9.03
2023-01-19T04:00:49.253Z,9.90
2023-01-19T04:03:17.018Z,9.80
2023-01-19T04:05:44.520Z,10.17
2023-01-19T04:08:11.924Z,10.00
2023-01-19T04:10:39.439Z,9.80
2023-01-19T04:13:06.655Z,9.37
2023-01-19T04:15:33.797Z,9.83
2023-01-19T04:18:01.614Z,9.30
2023-01-19T04:20:29.212Z,9.77
2023-01-19T04:23:00.063Z,9.97
2023-01-19T04:25:28.075Z,10.17
2023-01-19T04:27:55.255Z,9.83
2023-01-19T04:30:22.706Z,9.83
2023-01-19T04:32:50.008Z,10.17
2023-01-19T04:35:17.155Z,10.27
2023-01-19T04:37:47.357Z,9.93
2023-01-19T04:40:14.698Z,10.17
2023-01-19T04:42:45.619Z,9.97
2023-01-19T04:45:13.897Z,9.23
2023-01-19T04:47:42.684Z,8.87
2023-01-19T04:50:10.749Z,9.53
2023-01-19T04:52:37.878Z,10.13
2023-01-19T04:55:06.051Z,8.87
2023-01-19T04:57:33.185Z,8.87
2023-01-19T05:00:00.465Z,9.20
2023-01-19T05:02:28.037Z,8.63
2023-01-19T05:04:55.191Z,8.53
2023-01-19T05:07:22.319Z,8.40
2023-01-19T05:09:49.495Z,8.20
2023-01-19T05:12:16.875Z,8.90
2023-01-19T05:14:44.309Z,8.17
2023-01-19T05:17:11.632Z,8.70
2023-01-19T05:19:38.774Z,9.07
2023-01-19T05:22:06.326Z,8.83
2023-01-19T05:24:33.497Z,8.00
2023-01-19T05:27:00.775Z,8.37
2023-01-19T05:29:28.025Z,8.10
2023-01-19T05:31:55.170Z,8.60
2023-01-19T05:34:22.294Z,7.97
2023-01-19T05:36:49.495Z,8.20
2023-01-19T05:39:16.654Z,8.73
2023-01-19T05:41:45.484Z,7.93
2023-01-19T05:44:13.328Z,7.77
2023-01-19T05:46:41.023Z,8.30
2023-01-19T05:49:08.441Z,7.53
2023-01-19T05:51:38.375Z,8.00
2023-01-19T05:54:10.009Z,7.50
2023-01-19T05:56:38.721Z,7.77
2023-01-19T05:59:06.093Z,8.07
2023-01-19T06:01:36.511Z,7.70
2023-01-19T06:04:05.514Z,7.57
2023-01-19T06:06:32.841Z,7.57
2023-01-19T06:09:00.061Z,7.60
2023-01-19T06:11:27.198Z,7.53
2023-01-19T06:13:54.442Z,7.63
2023-01-19T06:16:21.601Z,7.80
2023-01-19T06:18:48.760Z,7.10
2023-01-19T06:21:16.086Z,7.90
2023-01-19T06:23:43.230Z,8.00
2023-01-19T06:26:10.835Z,7.87
2023-01-19T06:28:37.997Z,7.70
2023-01-19T06:31:05.206Z,7.47
2023-01-19T06:33:32.451Z,7.57
2023-01-19T06:35:59.739Z,7.37
2023-01-19T06:38:26.870Z,7.83
2023-01-19T06:40:55.132Z,7.60
2023-01-19T06:43:22.599Z,7.30
2023-01-19T06:45:50.484Z,7.27
2023-01-19T06:48:17.917Z,7.60
2023-01-19T06:50:48.535Z,8.03
2023-01-19T06:53:16.695Z,7.40
2023-01-19T06:55:44.408Z,7.20
2023-01-19T06:58:12.110Z,7.10
2023-01-19T07:00:39.457Z,7.50
2023-01-19T07:03:07.645Z,7.03
2023-01-19T07:05:37.905Z,7.43
2023-01-19T07:08:05.307Z,7.27
2023-01-19T07:11:26.869Z,6.90
2023-01-19T07:13:19.636Z,6.17
2023-01-19T07:15:46.979Z,7.00
2023-01-19T07:18:14.124Z,7.13
2023-01-19T07:20:41.330Z,7.43
2023-01-19T07:23:08.700Z,7.10
2023-01-19T07:25:36.559Z,7.07
2023-01-19T07:28:03.926Z,6.93
2023-01-19T07:30:31.076Z,6.93
2023-01-19T07:32:58.984Z,6.83
2023-01-19T07:35:26.387Z,6.90
2023-01-19T07:37:53.537Z,6.83
2023-01-19T07:40:22.781Z,6.10
2023-01-19T07:42:52.054Z,6.93
2023-01-19T07:45:20.633Z,6.87
2023-01-19T07:47:49.094Z,6.43
2023-01-19T07:50:17.130Z,6.63
2023-01-19T07:52:44.781Z,6.50
2023-01-19T07:55:11.970Z,7.23
2023-01-19T07:57:39.103Z,6.53
2023-01-19T08:00:06.602Z,7.20
2023-01-19T08:02:35.904Z,6.90
2023-01-19T08:05:03.073Z,6.00
2023-01-19T08:07:30.337Z,6.23
2023-01-19T08:09:57.519Z,6.30
2023-01-19T08:12:24.661Z,6.70
2023-01-19T08:14:51.837Z,6.47
2023-01-19T08:17:19.402Z,5.97
2023-01-19T08:19:46.531Z,6.20
2023-01-19T08:22:13.682Z,6.77
2023-01-19T08:24:40.813Z,6.17
2023-01-19T08:27:09.903Z,5.93
2023-01-19T08:29:37.101Z,6.23
2023-01-19T08:32:04.786Z,5.90
2023-01-19T08:34:32.021Z,6.33
2023-01-19T08:36:59.681Z,5.50
2023-01-19T08:39:27.431Z,5.90
2023-01-19T08:41:54.755Z,5.70
2023-01-19T08:44:21.962Z,5.83
2023-01-19T08:46:49.319Z,5.70
2023-01-19T08:49:17.058Z,5.83
2023-01-19T08:51:47.169Z,5.37
2023-01-19T08:54:16.688Z,5.70
2023-01-19T08:56:44.744Z,5.47
2023-01-19T08:59:13.222Z,6.03
2023-01-19T09:01:41.567Z,5.70
2023-01-19T09:04:08.832Z,6.03
2023-01-19T09:06:36.070Z,5.27
2023-01-19T09:09:03.275Z,5.90
2023-01-19T09:11:30.813Z,5.67
2023-01-19T09:13:57.961Z,5.80
2023-01-19T09:16:27.160Z,6.27
2023-01-19T09:18:54.377Z,5.50
2023-01-19T09:21:21.585Z,6.00
2023-01-19T09:23:49.620Z,6.20
2023-01-19T09:26:17.340Z,6.20
2023-01-19T09:28:44.509Z,6.03
2023-01-19T09:31:11.892Z,6.30
2023-01-19T09:33:39.102Z,6.40
2023-01-19T09:36:06.397Z,6.50
2023-01-19T09:38:34.004Z,6.37
2023-01-19T09:41:01.664Z,6.20
2023-01-19T09:43:28.855Z,5.93
2023-01-19T09:45:58.411Z,6.43
2023-01-19T09:48:34.792Z,6.17
2023-01-19T09:51:03.736Z,5.93
2023-01-19T09:53:44.284Z,6.30
2023-01-19T09:56:15.966Z,6.43
2023-01-19T09:58:43.263Z,6.53
2023-01-19T10:01:30.818Z,6.03
2023-01-19T10:04:09.076Z,6.70
2023-01-19T10:06:36.771Z,6.30
2023-01-19T10:09:19.708Z,6.50
2023-01-19T10:11:53.350Z,6.57
2023-01-19T10:14:24.685Z,6.70
2023-01-19T10:16:54.017Z,6.47
2023-01-19T10:19:21.720Z,7.03
2023-01-19T10:21:50.095Z,6.83
2023-01-19T10:24:23.172Z,7.17
2023-01-19T10:26:57.044Z,6.87
2023-01-19T10:29:36.318Z,6.93
2023-01-19T10:32:12.554Z,7.10
2023-01-19T10:34:41.508Z,7.07
2023-01-19T10:37:18.033Z,7.47
2023-01-19T10:39:46.772Z,7.20
2023-01-19T10:42:15.961Z,7.40
2023-01-19T10:44:45.167Z,7.37
2023-01-19T10:47:17.533Z,7.37
2023-01-19T10:49:44.765Z,8.00
2023-01-19T10:52:44.696Z,8.30
2023-01-19T10:55:23.995Z,7.50
2023-01-19T10:57:53.009Z,9.50
2023-01-19T11:00:34.184Z,8.73
2023-01-19T11:03:02.090Z,9.07
2023-01-19T11:05:30.680Z,8.93
2023-01-19T11:07:57.982Z,8.40
2023-01-19T11:10:26.594Z,9.33
2023-01-19T11:13:02.164Z,10.43
2023-01-19T11:15:29.601Z,9.10
2023-01-19T11:17:56.786Z,9.00
2023-01-19T11:20:29.225Z,9.80
2023-01-19T11:23:07.416Z,8.90
2023-01-19T11:25:36.740Z,9.33
2023-01-19T11:28:04.356Z,9.30
2023-01-19T11:30:31.983Z,9.17
2023-01-19T11:32:59.619Z,9.60
2023-01-19T11:35:33.104Z,9.47
2023-01-19T11:38:27.495Z,9.30
2023-01-19T11:40:59.143Z,9.07
2023-01-19T11:43:39.844Z,8.60
2023-01-19T11:46:15.181Z,8.87
2023-01-19T11:49:02.636Z,8.47
2023-01-19T11:51:34.847Z,8.27
2023-01-19T11:54:03.348Z,8.77
2023-01-19T11:56:30.514Z,9.30
2023-01-19T11:58:57.806Z,8.87
2023-01-19T12:01:26.665Z,8.37
2023-01-19T12:04:00.211Z,9.00
2023-01-19T12:06:31.265Z,8.47
2023-01-19T12:09:12.423Z,8.93
2023-01-19T12:11:41.832Z,7.63
2023-01-19T12:14:17.156Z,7.77
2023-01-19T12:16:44.835Z,8.17
2023-01-19T12:19:15.659Z,7.83
2023-01-19T12:21:43.009Z,8.33
2023-01-19T12:24:16.880Z,8.47
2023-01-19T12:26:44.037Z,7.93
2023-01-19T12:29:11.209Z,7.80
2023-01-19T12:31:40.538Z,7.73
2023-01-19T12:34:31.236Z,7.90
2023-01-19T12:37:03.714Z,7.87
2023-01-19T12:39:30.877Z,8.40
2023-01-19T12:42:11.650Z,8.00
2023-01-19T12:44:38.981Z,8.17
2023-01-19T12:47:13.047Z,8.30
2023-01-19T12:49:44.885Z,8.13
2023-01-19T12:52:14.795Z,8.17
2023-01-19T12:54:44.368Z,8.03
2023-01-19T12:57:37.973Z,7.80
2023-01-19T13:00:08.553Z,7.97
2023-01-19T13:02:46.433Z,7.80
2023-01-19T13:05:18.734Z,7.87
2023-01-19T13:08:04.855Z,8.57
2023-01-19T13:10:50.875Z,8.60
2023-01-19T13:13:22.507Z,8.40
2023-01-19T13:15:49.691Z,8.30
2023-01-19T13:18:19.026Z,8.63
2023-01-19T13:20:57.806Z,8.23
2023-01-19T13:23:49.812Z,9.00
2023-01-19T13:26:21.309Z,8.50
2023-01-19T13:28:59.318Z,8.53
2023-01-19T13:31:27.294Z,8.20
2023-01-19T13:33:55.471Z,8.63
2023-01-19T13:36:28.544Z,8.93
2023-01-19T13:38:56.362Z,8.50
2023-01-19T13:41:25.206Z,8.50
2023-01-19T13:44:08.125Z,8.30
2023-01-19T13:46:38.543Z,8.60
2023-01-19T13:49:12.345Z,8.00
2023-01-19T13:51:39.572Z,8.67
2023-01-19T13:54:14.613Z,8.03
2023-01-19T13:56:43.664Z,8.50
2023-01-19T13:59:12.560Z,8.63
2023-01-19T14:01:42.177Z,8.23
2023-01-19T14:04:32.536Z,8.23
2023-01-19T14:07:01.940Z,8.30
2023-01-19T14:09:29.337Z,8.53
2023-01-19T14:12:07.521Z,9.00
2023-01-19T14:14:34.670Z,9.10
2023-01-19T14:17:01.882Z,8.47
2023-01-19T14:19:29.130Z,9.40
2023-01-19T14:22:01.124Z,8.30
2023-01-19T14:24:32.042Z,8.50
2023-01-19T14:27:28.304Z,8.47
2023-01-19T14:29:55.593Z,8.93
2023-01-19T14:32:24.003Z,9.95
2023-01-19T14:34:54.447Z,9.50
2023-01-19T14:37:26.324Z,9.47
2023-01-19T14:39:53.448Z,8.57
2023-01-19T14:42:32.231Z,8.63
2023-01-19T14:45:01.491Z,9.60
2023-01-19T14:47:35.915Z,8.77
2023-01-19T14:50:07.474Z,8.00
2023-01-19T14:52:42.439Z,8.60
2023-01-19T14:55:19.703Z,8.33
2023-01-19T14:57:46.828Z,8.20
2023-01-19T15:00:17.350Z,7.93
2023-01-19T15:02:45.417Z,8.20
2023-01-19T15:05:12.672Z,8.50
2023-01-19T15:07:41.335Z,8.60
2023-01-19T15:10:20.848Z,8.50
2023-01-19T15:12:48.951Z,7.90
2023-01-19T15:15:17.410Z,7.33
2023-01-19T15:17:44.891Z,8.13
2023-01-19T15:20:16.631Z,7.63
2023-01-19T15:22:44.322Z,8.23
2023-01-19T15:25:19.440Z,7.87
2023-01-19T15:27:47.678Z,7.73
2023-01-19T15:30:17.620Z,7.80
2023-01-19T15:32:44.921Z,7.70
2023-01-19T15:35:15.604Z,8.20
2023-01-19T15:37:42.773Z,7.90
2023-01-19T15:40:10.491Z,7.77
2023-01-19T15:42:38.063Z,8.07
2023-01-19T15:45:23.253Z,7.90
2023-01-19T15:47:50.388Z,8.20
2023-01-19T15:50:17.580Z,8.00
2023-01-19T15:52:44.747Z,8.27
2023-01-19T15:55:12.582Z,8.20
2023-01-19T15:57:39.720Z,8.60
2023-01-19T16:00:07.086Z,8.27
2023-01-19T16:02:34.403Z,8.03
2023-01-19T16:05:01.549Z,8.20
2023-01-19T16:07:28.747Z,7.80
2023-01-19T16:09:56.108Z,8.07
2023-01-19T16:12:23.282Z,8.20
2023-01-19T16:14:50.441Z,8.03
2023-01-19T16:17:17.624Z,8.00
2023-01-19T16:19:44.820Z,7.60
2023-01-19T16:22:12.188Z,7.63
2023-01-19T16:24:39.377Z,7.60
2023-01-19T16:27:08.097Z,7.87
2023-01-19T16:29:35.468Z,8.80
2023-01-19T16:32:02.655Z,7.30
2023-01-19T16:34:29.849Z,8.13
2023-01-19T16:36:57.006Z,7.73
2023-01-19T16:39:24.158Z,7.53
2023-01-19T16:41:51.277Z,7.93
2023-01-19T16:44:18.760Z,8.43
2023-01-19T16:46:46.917Z,8.23
2023-01-19T16:49:18.431Z,7.83
2023-01-19T16:51:45.948Z,7.90
2023-01-19T16:54:14.255Z,7.90
2023-01-19T16:56:41.989Z,7.90
2023-01-19T16:59:11.387Z,7.57
2023-01-19T17:01:38.822Z,7.83
2023-01-19T17:04:06.675Z,8.07
2023-01-19T17:06:33.861Z,7.90
2023-01-19T17:09:01.112Z,7.53
2023-01-19T17:11:32.016Z,8.07
2023-01-19T17:14:02.094Z,7.93
2023-01-19T17:16:30.332Z,8.10
2023-01-19T17:18:58.025Z,8.30
2023-01-19T17:21:25.168Z,7.87
2023-01-19T17:23:56.452Z,8.20
2023-01-19T17:26:25.695Z,7.97
2023-01-19T17:28:52.919Z,7.63
2023-01-19T17:31:22.082Z,8.10
2023-01-19T17:33:50.573Z,7.83
2023-01-19T17:36:22.462Z,7.50
2023-01-19T17:38:50.479Z,8.10
2023-01-19T17:41:21.639Z,8.03
2023-01-19T17:43:50.299Z,8.27
2023-01-19T17:46:17.982Z,8.30
2023-01-19T17:48:45.211Z,8.00
2023-01-19T17:51:13.614Z,8.07
2023-01-19T17:53:41.779Z,8.47
2023-01-19T17:56:10.399Z,8.57
2023-01-19T17:58:37.730Z,8.30
2023-01-19T18:01:12.013Z,8.07
2023-01-19T18:03:39.560Z,8.43
2023-01-19T18:06:06.822Z,8.40
2023-01-19T18:08:34.689Z,8.07
2023-01-19T18:11:02.382Z,7.80
2023-01-19T18:13:30.069Z,8.07
2023-01-19T18:16:00.989Z,7.63
2023-01-19T18:18:28.279Z,7.67
2023-01-19T18:20:58.593Z,7.77
2023-01-19T18:23:25.737Z,7.87
2023-01-19T18:25:58.883Z,7.90
2023-01-19T18:28:29.283Z,7.83
2023-01-19T18:31:04.074Z,8.80
2023-01-19T18:33:32.085Z,10.43
2023-01-19T18:35:59.225Z,8.63
2023-01-19T18:38:26.391Z,9.10
2023-01-19T18:41:07.460Z,8.00
2023-01-19T18:43:34.857Z,8.50
2023-01-19T18:46:02.060Z,8.80
2023-01-19T18:48:29.577Z,8.90
2023-01-19T18:50:56.923Z,8.70
2023-01-19T18:53:24.307Z,9.10
2023-01-19T18:55:55.630Z,8.70
2023-01-19T18:58:25.418Z,9.47
2023-01-19T19:00:54.653Z,8.67
2023-01-19T19:03:24.686Z,9.20
2023-01-19T19:05:51.994Z,8.77
2023-01-19T19:08:22.257Z,9.70
2023-01-19T19:10:49.399Z,8.57
2023-01-19T19:13:17.451Z,9.40
2023-01-19T19:15:44.756Z,8.80
2023-01-19T19:18:13.960Z,9.30
2023-01-19T19:20:44.719Z,8.57
2023-01-19T19:23:11.997Z,8.63
2023-01-19T19:25:39.460Z,9.63
2023-01-19T19:28:07.019Z,9.10
2023-01-19T19:30:37.625Z,9.40
2023-01-19T19:33:04.933Z,9.23
2023-01-19T19:35:32.043Z,8.47
2023-01-19T19:37:59.288Z,8.67
2023-01-19T19:40:27.254Z,8.87
2023-01-19T19:42:55.111Z,9.07
2023-01-19T19:45:23.575Z,8.80
2023-01-19T19:47:51.021Z,8.20
2023-01-19T19:50:18.166Z,8.63
2023-01-19T19:52:45.349Z,9.30
2023-01-19T19:55:12.714Z,8.80
2023-01-19T19:57:39.961Z,8.43
2023-01-19T20:00:07.443Z,8.97
2023-01-19T20:02:34.651Z,8.67
2023-01-19T20:05:01.904Z,8.90
2023-01-19T20:07:29.286Z,8.87
2023-01-19T20:09:56.512Z,8.23
2023-01-19T20:12:23.752Z,9.27
2023-01-19T20:14:50.915Z,8.50
2023-01-19T20:17:18.966Z,8.17
2023-01-19T20:19:47.572Z,8.47
2023-01-19T20:22:14.793Z,8.60
2023-01-19T20:24:41.972Z,7.87
2023-01-19T20:27:09.115Z,8.07
2023-01-19T20:29:36.316Z,8.00
2023-01-19T20:32:03.472Z,8.53
2023-01-19T20:34:33.317Z,8.77
2023-01-19T20:37:01.621Z,8.77
2023-01-19T20:39:30.255Z,9.10
2023-01-19T20:41:57.599Z,9.10
2023-01-19T20:44:25.676Z,7.83
2023-01-19T20:46:53.268Z,8.37
2023-01-19T20:49:20.806Z,8.30
2023-01-19T20:51:48.399Z,8.60
2023-01-19T20:54:16.955Z,8.37
2023-01-19T20:56:44.108Z,8.83
2023-01-19T20:59:11.792Z,8.53
2023-01-19T21:01:39.195Z,8.20
2023-01-19T21:04:06.457Z,8.73
2023-01-19T21:06:33.663Z,8.30
2023-01-19T21:09:00.850Z,8.20
2023-01-19T21:11:28.130Z,8.57
2023-01-19T21:13:58.080Z,8.60
2023-01-19T21:16:26.329Z,8.40
2023-01-19T21:18:53.605Z,8.30
2023-01-19T21:21:30.436Z,8.07
2023-01-19T21:23:58.920Z,8.27
2023-01-19T21:26:26.283Z,7.90
2023-01-19T21:28:53.553Z,7.87
2023-01-19T21:31:26.252Z,7.30
2023-01-19T21:33:54.694Z,7.17
2023-01-19T21:36:22.574Z,8.17
2023-01-19T21:38:55.394Z,8.47
2023-01-19T21:41:22.681Z,8.10
2023-01-19T21:43:49.846Z,7.73
2023-01-19T21:46:21.628Z,8.70
2023-01-19T21:48:48.815Z,8.50
2023-01-19T21:51:16.363Z,8.60
2023-01-19T21:53:43.574Z,8.60
2023-01-19T21:56:11.349Z,8.13
2023-01-19T21:58:39.138Z,9.33
2023-01-19T22:01:10.707Z,8.80
2023-01-19T22:03:38.147Z,8.97
2023-01-19T22:06:06.171Z,8.80
2023-01-19T22:08:33.440Z,9.33
2023-01-19T22:11:07.623Z,8.67
2023-01-19T22:13:35.124Z,8.80
2023-01-19T22:16:03.138Z,8.70
2023-01-19T22:18:30.340Z,8.83
2023-01-19T22:20:57.498Z,8.47
2023-01-19T22:23:24.632Z,8.67
2023-01-19T22:25:51.779Z,8.13
2023-01-19T22:28:18.961Z,8.97
2023-01-19T22:30:46.205Z,8.70
2023-01-19T22:33:13.388Z,8.07
2023-01-19T22:35:40.528Z,8.10
2023-01-19T22:38:07.685Z,8.23
2023-01-19T22:40:34.802Z,8.60
2023-01-19T22:43:01.975Z,8.70
2023-01-19T22:45:29.213Z,8.77
2023-01-19T22:47:56.358Z,8.80
2023-01-19T22:50:23.464Z,9.43
2023-01-19T22:52:50.664Z,9.63
2023-01-19T22:55:17.838Z,9.30
2023-01-19T22:57:44.975Z,9.03
2023-01-19T23:00:12.538Z,9.67
2023-01-19T23:02:39.654Z,9.33
2023-01-19T23:05:07.002Z,9.47
2023-01-19T23:07:34.511Z,9.83
2023-01-19T23:10:01.651Z,10.13
2023-01-19T23:12:28.780Z,9.70
2023-01-19T23:14:55.904Z,9.40
2023-01-19T23:17:23.010Z,9.80
2023-01-19T23:19:50.182Z,10.30
2023-01-19T23:22:17.307Z,10.70
2023-01-19T23:24:44.484Z,9.63
2023-01-19T23:27:11.912Z,10.67
2023-01-19T23:29:39.022Z,9.67
2023-01-19T23:32:06.194Z,10.13
2023-01-19T23:34:33.334Z,10.30
2023-01-19T23:37:00.512Z,10.43
2023-01-19T23:39:27.781Z,10.57
2023-01-19T23:41:54.916Z,10.27
2023-01-19T23:44:22.186Z,10.87
2023-01-19T23:46:49.413Z,10.10
2023-01-19T23:49:18.067Z,10.70
2023-01-19T23:51:45.223Z,10.30
2023-01-19T23:54:12.431Z,9.90
2023-01-19T23:56:39.793Z,10.53
2023-01-19T23:59:11.312Z,10.33
